createdAt,value
2018-09-03T00:01:28.696Z,57.96
2018-09-03T00:03:56.330Z,58.29
2018-09-03T00:06:24.060Z,58.71
2018-09-03T00:08:51.709Z,58.50
2018-09-03T00:11:19.722Z,59.26
2018-09-03T00:13:48.016Z,58.56
2018-09-03T00:16:15.649Z,58.96
2018-09-03T00:18:43.342Z,58.08
2018-09-03T00:21:11.029Z,58.87
2018-09-03T00:23:39.613Z,58.90
2018-09-03T00:26:07.397Z,58.08
2018-09-03T00:28:35.037Z,58.46
2018-09-03T00:31:08.512Z,58.80
2018-09-03T00:33:41.719Z,58.24
2018-09-03T00:36:15.327Z,58.83
2018-09-03T00:38:48.972Z,58.57
2018-09-03T00:41:22.208Z,58.24
2018-09-03T00:43:55.479Z,58.64
2018-09-03T00:46:29.172Z,58.58
2018-09-03T00:48:57.246Z,58.15
2018-09-03T00:51:24.887Z,58.28
2018-09-03T00:53:52.926Z,58.34
2018-09-03T00:56:20.672Z,58.51
2018-09-03T00:58:48.335Z,58.64
2018-09-03T01:01:16.560Z,58.93
2018-09-03T01:03:44.301Z,59.58
2018-09-03T01:06:12.391Z,59.28
2018-09-03T01:08:40.443Z,59.79
2018-09-03T01:11:08.360Z,60.55
2018-09-03T01:13:36.101Z,59.63
2018-09-03T01:16:04.337Z,59.53
2018-09-03T01:18:37.122Z,59.98
2018-09-03T01:21:05.095Z,59.47
2018-09-03T01:23:33.016Z,58.95
2018-09-03T01:26:00.741Z,60.10
2018-09-03T01:28:28.482Z,59.61
2018-09-03T01:30:56.180Z,59.37
2018-09-03T01:33:23.898Z,59.65
2018-09-03T01:35:51.634Z,59.07
2018-09-03T01:38:19.408Z,59.60
2018-09-03T01:40:47.052Z,59.80
2018-09-03T01:43:14.817Z,59.78
2018-09-03T01:45:42.678Z,59.72
2018-09-03T01:48:10.456Z,59.10
2018-09-03T01:50:38.469Z,58.58
2018-09-03T01:55:33.194Z,59.19
2018-09-03T01:58:01.241Z,58.43
2018-09-03T02:00:28.909Z,58.36
2018-09-03T02:02:56.616Z,59.06
2018-09-03T02:05:24.273Z,58.66
2018-09-03T02:07:52.522Z,59.21
2018-09-03T02:10:20.232Z,59.38
2018-09-03T02:12:47.945Z,58.92
2018-09-03T02:15:16.196Z,58.97
2018-09-03T02:17:43.924Z,59.67
2018-09-03T02:20:11.647Z,59.80
2018-09-03T02:22:39.712Z,59.89
2018-09-03T02:25:07.456Z,59.09
2018-09-03T02:27:35.476Z,59.72
2018-09-03T02:30:03.141Z,58.96
2018-09-03T02:32:31.229Z,59.14
2018-09-03T02:34:59.263Z,59.19
2018-09-03T02:37:27.289Z,60.00
2018-09-03T02:39:54.979Z,59.81
2018-09-03T02:42:22.656Z,60.07
2018-09-03T02:44:50.405Z,59.06
2018-09-03T02:47:18.104Z,59.11
2018-09-03T02:49:45.860Z,59.53
2018-09-03T02:52:13.863Z,59.78
2018-09-03T02:54:41.750Z,60.02
2018-09-03T02:57:09.451Z,59.44
2018-09-03T02:59:37.220Z,59.50
2018-09-03T03:02:05.025Z,59.73
2018-09-03T03:04:32.725Z,60.31
2018-09-03T03:07:00.363Z,60.51
2018-09-03T03:09:28.456Z,60.26
2018-09-03T03:11:56.177Z,60.43
2018-09-03T03:14:23.845Z,60.43
2018-09-03T03:16:51.640Z,60.96
2018-09-03T03:19:19.341Z,60.18
2018-09-03T03:21:47.045Z,60.21
2018-09-03T03:24:14.751Z,60.21
2018-09-03T03:26:42.465Z,61.02
2018-09-03T03:29:10.263Z,60.51
2018-09-03T03:31:38.308Z,60.86
2018-09-03T03:34:06.588Z,60.81
2018-09-03T03:36:34.275Z,60.80
2018-09-03T03:39:02.085Z,61.21
2018-09-03T03:41:29.769Z,61.22
2018-09-03T03:43:57.506Z,60.96
2018-09-03T03:46:25.459Z,60.11
2018-09-03T03:48:53.148Z,60.19
2018-09-03T03:51:20.867Z,60.73
2018-09-03T03:53:48.554Z,59.98
2018-09-03T03:56:16.275Z,60.47
2018-09-03T03:58:44.145Z,60.42
2018-09-03T04:04:20.292Z,60.73
2018-09-03T04:06:47.928Z,60.04
2018-09-03T04:09:16.132Z,60.73
2018-09-03T04:14:34.216Z,60.96
2018-09-03T04:17:02.101Z,60.92
2018-09-03T04:19:29.762Z,60.83
2018-09-03T04:21:57.674Z,60.48
2018-09-03T04:24:41.576Z,60.84
2018-09-03T04:27:09.195Z,60.60
2018-09-03T04:29:37.097Z,60.68
2018-09-03T04:32:05.151Z,60.65
2018-09-03T04:34:32.794Z,60.86
2018-09-03T04:37:00.509Z,61.01
2018-09-03T04:39:28.136Z,60.66
2018-09-03T04:42:09.089Z,60.51
2018-09-03T04:44:36.701Z,60.64
2018-09-03T04:58:27.364Z,60.16
2018-09-03T05:00:55.059Z,60.33
2018-09-03T05:03:22.733Z,60.03
2018-09-03T05:05:51.369Z,60.77
2018-09-03T05:08:19.405Z,60.21
2018-09-03T05:10:47.348Z,60.70
2018-09-03T05:16:05.937Z,59.84
2018-09-03T05:18:35.195Z,59.81
2018-09-03T05:21:03.190Z,60.27
2018-09-03T05:23:30.931Z,59.85
2018-09-03T05:25:58.716Z,60.25
2018-09-03T05:28:26.408Z,60.14
2018-09-03T05:30:54.518Z,60.05
2018-09-03T05:33:22.296Z,59.58
2018-09-03T05:35:50.072Z,59.49
2018-09-03T05:38:18.064Z,60.01
2018-09-03T05:40:45.755Z,60.92
2018-09-03T05:43:13.457Z,60.93
2018-09-03T05:45:41.177Z,61.15
2018-09-03T05:48:09.157Z,60.36
2018-09-03T05:50:36.895Z,60.29
2018-09-03T05:53:05.051Z,60.94
2018-09-03T05:55:33.124Z,60.78
2018-09-03T05:58:01.384Z,61.06
2018-09-03T06:00:29.428Z,60.16
2018-09-03T06:02:57.166Z,61.05
2018-09-03T06:05:24.988Z,60.90
2018-09-03T06:07:52.736Z,60.83
2018-09-03T06:10:20.438Z,60.50
2018-09-03T06:12:48.166Z,60.62
2018-09-03T06:15:16.015Z,60.35
2018-09-03T06:17:43.784Z,60.71
2018-09-03T06:20:23.256Z,59.94
2018-09-03T06:22:51.140Z,60.80
2018-09-03T06:25:18.862Z,60.09
2018-09-03T06:27:46.751Z,60.54
2018-09-03T06:30:15.071Z,59.82
2018-09-03T06:32:42.862Z,60.33
2018-09-03T06:35:10.871Z,59.92
2018-09-03T06:37:38.646Z,60.52
2018-09-03T06:40:06.424Z,59.75
2018-09-03T06:42:35.020Z,60.46
2018-09-03T06:45:02.821Z,59.48
2018-09-03T06:47:30.608Z,59.36
2018-09-03T06:49:58.410Z,60.25
2018-09-03T06:52:26.428Z,60.30
2018-09-03T06:54:54.149Z,60.11
2018-09-03T06:57:21.892Z,59.98
2018-09-03T06:59:49.660Z,59.45
2018-09-03T07:02:17.580Z,59.33
2018-09-03T07:04:45.325Z,60.10
2018-09-03T07:07:13.019Z,60.02
2018-09-03T07:09:40.781Z,59.61
2018-09-03T07:12:08.470Z,59.87
2018-09-03T07:14:36.136Z,59.62
2018-09-03T07:17:04.717Z,59.17
2018-09-03T07:19:32.428Z,59.17
2018-09-03T07:22:00.532Z,59.51
2018-09-03T07:24:28.248Z,59.25
2018-09-03T07:26:55.957Z,58.87
2018-09-03T07:29:24.300Z,58.90
2018-09-03T07:31:52.032Z,59.45
2018-09-03T07:34:20.629Z,59.14
2018-09-03T07:36:48.661Z,59.22
2018-09-03T07:39:16.958Z,59.77
2018-09-03T07:41:44.758Z,59.17
2018-09-03T07:44:12.612Z,59.17
2018-09-03T07:46:40.364Z,59.23
2018-09-03T07:49:08.185Z,59.05
2018-09-03T07:51:35.956Z,59.26
2018-09-03T07:54:03.628Z,59.14
2018-09-03T07:56:31.312Z,59.54
2018-09-03T07:58:59.402Z,58.97
2018-09-03T08:01:27.035Z,58.76
2018-09-03T08:03:55.084Z,59.23
2018-09-03T08:06:23.097Z,59.14
2018-09-03T08:08:50.789Z,58.41
2018-09-03T08:11:18.935Z,58.55
2018-09-03T08:13:46.668Z,58.54
2018-09-03T08:16:14.467Z,59.03
2018-09-03T08:18:42.321Z,58.39
2018-09-03T08:21:10.043Z,58.70
2018-09-03T08:23:37.822Z,59.21
2018-09-03T08:26:05.753Z,58.40
2018-09-03T08:28:33.584Z,59.13
2018-09-03T08:31:01.631Z,58.31
2018-09-03T08:33:29.318Z,58.53
2018-09-03T08:35:57.589Z,58.26
2018-09-03T08:38:25.425Z,58.31
2018-09-03T08:40:53.239Z,59.27
2018-09-03T08:43:21.257Z,58.75
2018-09-03T08:45:48.992Z,59.19
2018-09-03T08:48:16.756Z,58.50
2018-09-03T08:50:44.670Z,58.76
2018-09-03T08:53:12.365Z,58.55
2018-09-03T08:55:40.168Z,58.26
2018-09-03T08:58:07.935Z,58.18
2018-09-03T09:00:35.613Z,58.96
2018-09-03T09:03:03.289Z,58.92
2018-09-03T09:05:31.371Z,58.45
2018-09-03T09:07:59.077Z,58.24
2018-09-03T09:10:26.759Z,58.49
2018-09-03T09:15:44.833Z,57.86
2018-09-03T09:18:12.643Z,58.34
2018-09-03T09:20:40.390Z,57.68
2018-09-03T09:23:08.212Z,58.75
2018-09-03T09:25:36.040Z,57.44
2018-09-03T09:28:03.982Z,58.05
2018-09-03T09:30:31.833Z,58.20
2018-09-03T09:32:59.587Z,58.24
2018-09-03T09:35:27.654Z,57.42
2018-09-03T09:40:49.777Z,56.97
2018-09-03T09:43:17.722Z,56.71
2018-09-03T09:45:45.395Z,56.61
2018-09-03T09:48:13.089Z,57.02
2018-09-03T09:50:40.813Z,57.07
2018-09-03T09:53:08.484Z,56.04
2018-09-03T09:55:36.332Z,56.10
2018-09-03T09:58:04.041Z,56.58
2018-09-03T10:00:37.472Z,56.12
2018-09-03T10:03:05.156Z,56.86
2018-09-03T10:05:32.899Z,56.26
2018-09-03T10:08:00.869Z,56.63
2018-09-03T10:10:29.163Z,56.37
2018-09-03T10:12:56.933Z,56.17
2018-09-03T10:15:24.761Z,56.34
2018-09-03T10:17:52.490Z,55.80
2018-09-03T10:20:20.563Z,56.69
2018-09-03T10:22:48.262Z,56.38
2018-09-03T10:25:15.949Z,56.08
2018-09-03T10:27:43.733Z,57.04
2018-09-03T10:30:11.426Z,55.75
2018-09-03T10:32:40.314Z,56.65
2018-09-03T10:35:08.080Z,57.07
2018-09-03T10:37:35.912Z,57.49
2018-09-03T10:40:04.053Z,56.96
2018-09-03T10:42:32.003Z,56.91
2018-09-03T10:45:00.117Z,57.54
2018-09-03T10:47:27.829Z,57.39
2018-09-03T10:49:55.629Z,57.77
2018-09-03T10:52:23.371Z,57.27
2018-09-03T10:54:51.058Z,56.78
2018-09-03T10:57:18.846Z,57.54
2018-09-03T10:59:47.067Z,56.63
2018-09-03T11:02:14.777Z,57.45
2018-09-03T11:04:43.757Z,56.72
2018-09-03T11:07:12.450Z,56.82
2018-09-03T11:09:41.325Z,57.04
2018-09-03T11:12:09.134Z,56.29
2018-09-03T11:14:36.952Z,57.09
2018-09-03T11:17:04.662Z,57.55
2018-09-03T11:19:34.956Z,56.96
2018-09-03T11:22:02.726Z,57.99
2018-09-03T11:24:30.460Z,58.07
2018-09-03T11:26:58.179Z,57.26
2018-09-03T11:29:26.077Z,57.11
2018-09-03T11:31:53.971Z,57.56
2018-09-03T11:34:21.666Z,57.53
2018-09-03T11:36:49.590Z,57.02
2018-09-03T11:39:17.631Z,56.63
2018-09-03T11:41:45.577Z,57.28
2018-09-03T11:44:13.351Z,56.43
2018-09-03T11:46:41.413Z,56.96
2018-09-03T11:49:09.116Z,56.14
2018-09-03T11:51:36.950Z,56.63
2018-09-03T11:54:04.679Z,57.14
2018-09-03T11:56:32.366Z,56.87
2018-09-03T11:59:00.571Z,57.35
2018-09-03T12:01:28.282Z,56.81
2018-09-03T12:03:55.990Z,57.72
2018-09-03T12:06:23.709Z,57.59
2018-09-03T12:08:51.329Z,56.96
2018-09-03T12:11:19.226Z,57.52
2018-09-03T12:13:47.202Z,56.51
2018-09-03T12:16:18.739Z,56.66
2018-09-03T12:21:37.098Z,56.40
2018-09-03T12:24:05.446Z,56.78
2018-09-03T12:26:34.160Z,57.02
2018-09-03T12:29:03.035Z,56.81
2018-09-03T12:31:34.872Z,56.55
2018-09-03T12:34:03.518Z,56.40
2018-09-03T12:36:41.951Z,56.54
2018-09-03T12:39:10.623Z,56.34
2018-09-03T12:41:39.184Z,56.10
2018-09-03T12:44:13.498Z,56.48
2018-09-03T12:46:41.249Z,56.33
2018-09-03T12:49:10.007Z,56.66
2018-09-03T12:51:39.273Z,56.55
2018-09-03T12:54:07.881Z,56.33
2018-09-03T12:56:36.213Z,56.96
2018-09-03T12:59:09.806Z,55.94
2018-09-03T13:01:39.586Z,55.74
2018-09-03T13:04:08.959Z,55.46
2018-09-03T13:06:37.509Z,55.67
2018-09-03T13:11:55.283Z,55.75
2018-09-03T13:14:24.203Z,55.83
2018-09-03T13:16:52.767Z,55.19
2018-09-03T13:19:21.582Z,54.91
2018-09-03T13:21:50.300Z,54.89
2018-09-03T13:24:21.085Z,55.33
2018-09-03T13:26:50.978Z,54.38
2018-09-03T13:29:19.496Z,54.80
2018-09-03T13:31:48.569Z,54.75
2018-09-03T13:34:20.167Z,54.76
2018-09-03T13:36:48.815Z,54.38
2018-09-03T13:39:19.088Z,53.80
2018-09-03T13:41:48.262Z,54.39
2018-09-03T13:44:18.016Z,54.46
2018-09-03T13:46:47.544Z,54.13
2018-09-03T13:49:19.686Z,53.96
2018-09-03T13:51:49.395Z,53.27
2018-09-03T13:54:18.097Z,52.96
2018-09-03T13:56:46.884Z,53.46
2018-09-03T13:59:15.553Z,52.90
2018-09-03T14:01:43.936Z,53.21
2018-09-03T14:04:12.450Z,53.16
2018-09-03T14:06:41.239Z,53.36
2018-09-03T14:09:09.650Z,52.89
2018-09-03T14:11:38.731Z,52.86
2018-09-03T14:14:08.680Z,52.22
2018-09-03T14:16:37.296Z,52.78
2018-09-03T14:19:06.098Z,51.37
2018-09-03T14:21:34.986Z,50.94
2018-09-03T14:24:03.561Z,50.92
2018-09-03T14:26:37.198Z,50.79
2018-09-03T14:29:05.956Z,50.76
2018-09-03T14:31:35.533Z,49.90
2018-09-03T14:34:06.375Z,48.00
2018-09-03T14:36:36.016Z,48.39
2018-09-03T14:39:05.927Z,47.86
2018-09-03T14:41:42.065Z,48.74
2018-09-03T14:44:12.788Z,48.82
2018-09-03T14:49:08.675Z,47.52
2018-09-03T14:51:37.183Z,48.60
2018-09-03T14:54:09.618Z,47.17
2018-09-03T14:56:39.533Z,47.97
2018-09-03T14:59:14.507Z,46.96
2018-09-03T15:01:44.548Z,47.46
2018-09-03T15:04:13.046Z,47.33
2018-09-03T15:06:43.629Z,46.65
2018-09-03T15:09:14.388Z,46.86
2018-09-03T15:11:42.925Z,47.61
2018-09-03T15:14:11.407Z,47.28
2018-09-03T15:16:40.787Z,46.26
2018-09-03T15:19:09.482Z,47.16
2018-09-03T15:21:38.238Z,45.96
2018-09-03T15:24:07.228Z,46.14
2018-09-03T15:26:35.788Z,45.68
2018-09-03T15:29:07.168Z,46.19
2018-09-03T15:31:37.491Z,45.34
2018-09-03T15:34:06.333Z,45.44
2018-09-03T15:36:37.883Z,46.35
2018-09-03T15:39:10.239Z,46.78
2018-09-03T15:41:38.652Z,47.38
2018-09-03T15:44:09.562Z,47.47
2018-09-03T15:46:39.595Z,47.25
2018-09-03T15:49:08.084Z,47.85
2018-09-03T15:51:36.732Z,48.56
2018-09-03T15:54:05.271Z,49.02
2018-09-03T15:56:38.636Z,49.75
2018-09-03T15:59:07.237Z,49.31
2018-09-03T16:01:38.603Z,49.43
2018-09-03T16:04:07.124Z,50.75
2018-09-03T16:06:35.838Z,50.39
2018-09-03T16:09:08.503Z,50.60
2018-09-03T16:11:38.676Z,50.35
2018-09-03T16:14:09.185Z,51.18
2018-09-03T16:16:40.824Z,50.64
2018-09-03T16:19:10.454Z,50.99
2018-09-03T16:21:39.922Z,51.47
2018-09-03T16:24:09.251Z,52.15
2018-09-03T16:26:38.046Z,51.81
2018-09-03T16:29:07.385Z,51.92
2018-09-03T16:31:36.425Z,51.86
2018-09-03T16:34:10.141Z,51.37
2018-09-03T16:36:37.953Z,52.09
2018-09-03T16:39:09.661Z,51.80
2018-09-03T16:41:42.430Z,52.27
2018-09-03T16:44:14.466Z,51.68
2018-09-03T16:46:43.816Z,52.17
2018-09-03T16:49:11.653Z,52.35
2018-09-03T16:51:39.731Z,52.38
2018-09-03T16:54:07.472Z,52.29
2018-09-03T16:56:35.157Z,52.85
2018-09-03T16:59:02.884Z,52.00
2018-09-03T17:01:30.802Z,52.80
2018-09-03T17:04:01.026Z,52.71
2018-09-03T17:06:28.739Z,52.44
2018-09-03T17:08:56.419Z,53.19
2018-09-03T17:11:24.154Z,52.61
2018-09-03T17:13:51.860Z,52.53
2018-09-03T17:16:19.546Z,52.46
2018-09-03T17:18:47.401Z,52.95
2018-09-03T17:21:15.193Z,52.35
2018-09-03T17:23:42.893Z,52.57
2018-09-03T17:26:10.692Z,53.59
2018-09-03T17:28:39.320Z,53.73
2018-09-03T17:31:07.036Z,53.60
2018-09-03T17:33:34.801Z,54.23
2018-09-03T17:36:02.856Z,53.53
2018-09-03T17:38:30.623Z,53.73
2018-09-03T17:40:58.286Z,53.66
2018-09-03T17:43:26.363Z,54.59
2018-09-03T17:45:54.157Z,54.04
2018-09-03T17:48:22.008Z,54.38
2018-09-03T17:50:49.755Z,53.93
2018-09-03T17:53:17.470Z,54.97
2018-09-03T17:55:45.726Z,54.57
2018-09-03T17:58:13.413Z,54.41
2018-09-03T18:00:41.182Z,55.34
2018-09-03T18:03:09.252Z,55.12
2018-09-03T18:05:37.864Z,55.28
2018-09-03T18:08:05.658Z,55.13
2018-09-03T18:10:33.726Z,55.13
2018-09-03T18:13:01.969Z,55.16
2018-09-03T18:15:29.933Z,56.00
2018-09-03T18:17:57.629Z,56.06
2018-09-03T18:20:25.672Z,56.23
2018-09-03T18:22:53.606Z,55.50
2018-09-03T18:25:21.869Z,55.89
2018-09-03T18:27:49.539Z,56.23
2018-09-03T18:30:17.650Z,56.19
2018-09-03T18:32:45.825Z,56.73
2018-09-03T18:35:13.537Z,56.12
2018-09-03T18:37:41.538Z,55.88
2018-09-03T18:40:09.278Z,56.76
2018-09-03T18:42:37.074Z,56.11
2018-09-03T18:45:05.427Z,56.44
2018-09-03T18:47:33.206Z,56.39
2018-09-03T18:50:01.559Z,57.05
2018-09-03T18:52:29.367Z,56.63
2018-09-03T18:54:57.051Z,57.39
2018-09-03T18:57:24.756Z,57.04
2018-09-03T18:59:54.183Z,57.12
2018-09-03T19:02:22.185Z,56.85
2018-09-03T19:04:49.916Z,56.37
2018-09-03T19:07:17.690Z,56.64
2018-09-03T19:09:45.447Z,56.82
2018-09-03T19:12:13.155Z,57.17
2018-09-03T19:14:41.344Z,56.98
2018-09-03T19:17:09.026Z,57.68
2018-09-03T19:19:36.785Z,57.81
2018-09-03T19:22:04.515Z,57.29
2018-09-03T19:24:32.217Z,57.12
2018-09-03T19:26:59.990Z,57.89
2018-09-03T19:29:27.690Z,57.48
2018-09-03T19:31:55.471Z,57.50
2018-09-03T19:34:23.629Z,57.83
2018-09-03T19:36:51.305Z,57.23
2018-09-03T19:39:19.033Z,58.17
2018-09-03T19:41:46.812Z,57.23
2018-09-03T19:44:14.542Z,57.32
2018-09-03T19:46:42.201Z,57.50
2018-09-03T19:49:10.007Z,57.81
2018-09-03T19:51:37.667Z,57.71
2018-09-03T19:54:05.924Z,57.91
2018-09-03T19:56:33.874Z,58.35
2018-09-03T19:59:01.829Z,58.50
2018-09-03T20:01:29.907Z,58.47
2018-09-03T20:03:57.591Z,57.33
2018-09-03T20:06:25.362Z,58.40
2018-09-03T20:08:53.158Z,58.20
2018-09-03T20:11:20.855Z,57.91
2018-09-03T20:13:48.640Z,58.54
2018-09-03T20:16:16.583Z,58.13
2018-09-03T20:18:44.312Z,58.57
2018-09-03T20:21:12.082Z,57.43
2018-09-03T20:23:40.461Z,57.61
2018-09-03T20:26:08.173Z,57.63
2018-09-03T20:28:35.936Z,58.29
2018-09-03T20:31:04.005Z,58.55
2018-09-03T20:33:31.677Z,58.48
2018-09-03T20:35:59.427Z,58.50
2018-09-03T20:38:27.103Z,58.33
2018-09-03T20:40:54.792Z,58.20
2018-09-03T20:43:22.864Z,57.37
2018-09-03T20:45:50.595Z,57.64
2018-09-03T20:48:18.333Z,57.39
2018-09-03T20:50:46.010Z,58.32
2018-09-03T20:53:13.721Z,58.28
2018-09-03T20:55:41.767Z,57.88
2018-09-03T20:58:09.470Z,57.56
2018-09-03T21:00:37.148Z,57.72
2018-09-03T21:03:05.265Z,58.29
2018-09-03T21:05:33.006Z,57.54
2018-09-03T21:08:00.785Z,58.42
2018-09-03T21:10:28.420Z,58.11
2018-09-03T21:12:56.091Z,58.15
2018-09-03T21:15:23.877Z,57.82
2018-09-03T21:17:51.540Z,58.53
2018-09-03T21:20:19.249Z,58.39
2018-09-03T21:22:46.972Z,57.45
2018-09-03T21:25:14.658Z,57.55
2018-09-03T21:27:42.490Z,57.48
2018-09-03T21:30:10.189Z,58.01
2018-09-03T21:32:37.928Z,58.17
2018-09-03T21:35:06.444Z,57.78
2018-09-03T21:37:34.551Z,57.62
2018-09-03T21:40:02.243Z,58.32
2018-09-03T21:42:29.916Z,57.57
2018-09-03T21:44:57.701Z,58.60
2018-09-03T21:47:25.358Z,58.34
2018-09-03T21:49:53.067Z,57.45
2018-09-03T21:52:21.131Z,58.33
2018-09-03T21:54:48.811Z,58.48
2018-09-03T21:57:16.469Z,57.48
2018-09-03T21:59:44.149Z,58.09
2018-09-03T22:02:11.897Z,58.20
2018-09-03T22:04:41.536Z,57.49
2018-09-03T22:07:09.262Z,58.01
2018-09-03T22:09:37.233Z,57.59
2018-09-03T22:12:04.945Z,58.00
2018-09-03T22:14:32.600Z,58.21
2018-09-03T22:17:00.362Z,57.06
2018-09-03T22:19:28.051Z,57.22
2018-09-03T22:21:56.112Z,58.08
2018-09-03T22:24:23.792Z,57.83
2018-09-03T22:26:51.634Z,57.90
2018-09-03T22:29:19.325Z,57.61
2018-09-03T22:31:47.068Z,58.31
2018-09-03T22:34:14.748Z,57.33
2018-09-03T22:36:43.318Z,57.42
2018-09-03T22:39:11.125Z,58.30
2018-09-03T22:41:38.912Z,57.80
2018-09-03T22:44:06.887Z,58.31
2018-09-03T22:46:34.582Z,57.58
2018-09-03T22:49:02.318Z,57.56
2018-09-03T22:51:30.241Z,58.02
2018-09-03T22:53:58.340Z,57.52
2018-09-03T22:56:26.046Z,57.48
2018-09-03T22:58:53.728Z,57.59
2018-09-03T23:01:21.534Z,57.98
2018-09-03T23:03:49.190Z,58.13
2018-09-03T23:06:17.005Z,58.04
2018-09-03T23:08:44.697Z,57.75
2018-09-03T23:11:12.404Z,57.10
2018-09-03T23:13:40.189Z,58.18
2018-09-03T23:16:07.898Z,57.48
2018-09-03T23:18:35.622Z,57.59
2018-09-03T23:21:03.277Z,58.25
2018-09-03T23:23:32.273Z,58.08
2018-09-03T23:25:59.932Z,57.44
2018-09-03T23:28:27.598Z,58.11
2018-09-03T23:30:55.601Z,58.07
2018-09-03T23:33:23.313Z,57.49
2018-09-03T23:35:51.100Z,57.56
2018-09-03T23:38:24.031Z,58.39
2018-09-03T23:40:51.715Z,57.62
2018-09-03T23:43:19.845Z,57.71
2018-09-03T23:45:47.420Z,58.14
2018-09-03T23:48:15.773Z,57.51
2018-09-03T23:50:43.468Z,58.22
2018-09-03T23:53:11.131Z,57.91
2018-09-03T23:55:39.100Z,58.29
